EZY27A LIEO-LFMN
Flight info
| Callsign | EZY27A |
|---|---|
| Flight time | N/A |
| Altitude | 28000 |
| Route | OKIVA P980 DIKEL DCT OMEDA M622 LONSU |
| Aircraft | A320/M-SDE3FGHIRWY/LB1 |
Departure
| Time | 2026-05-01 14:15 |
|---|---|
| Airport | Olbia Costa Smeralda Airport (LIEO) |
Arrival
| Time | N/A |
|---|---|
| Airport | Nice-Côte d'Azur Airport (LFMN) |
| Time | Latitude | Longitude | Altitude | Speed | Heading |
|---|---|---|---|---|---|
| 2026-05-01 14:15 | 40.94749 | 9.60965 | 4437 ft | 225 kts | 54° |
| 2026-05-01 14:15 | 40.95652 | 9.62673 | 5304 ft | 228 kts | 53° |
| 2026-05-01 14:15 | 40.96558 | 9.64384 | 6183 ft | 230 kts | 53° |
| 2026-05-01 14:16 | 40.97611 | 9.65981 | 7055 ft | 229 kts | 33° |
| 2026-05-01 14:16 | 40.99085 | 9.66694 | 7806 ft | 234 kts | 5° |
| 2026-05-01 14:16 | 41.00749 | 9.66193 | 8280 ft | 260 kts | 333° |
| 2026-05-01 14:16 | 41.02280 | 9.64840 | 9016 ft | 268 kts | 329° |
| 2026-05-01 14:17 | 41.03824 | 9.63427 | 9862 ft | 272 kts | 328° |
| 2026-05-01 14:17 | 41.05374 | 9.62010 | 10576 ft | 279 kts | 328° |
| 2026-05-01 14:17 | 41.07052 | 9.60485 | 10832 ft | 303 kts | 328° |
| 2026-05-01 14:17 | 41.08667 | 9.58507 | 11074 ft | 331 kts | 312° |
| 2026-05-01 14:18 | 41.10042 | 9.55985 | 11633 ft | 341 kts | 309° |
| 2026-05-01 14:18 | 41.11439 | 9.53398 | 12355 ft | 345 kts | 309° |
| 2026-05-01 14:18 | 41.12834 | 9.50826 | 13087 ft | 349 kts | 310° |
| 2026-05-01 14:18 | 41.13801 | 9.49051 | 13591 ft | 352 kts | 310° |
| 2026-05-01 14:19 | 41.15719 | 9.45543 | 14485 ft | 357 kts | 310° |
| 2026-05-01 14:19 | 41.17188 | 9.42860 | 15105 ft | 361 kts | 311° |
| 2026-05-01 14:19 | 41.18680 | 9.40135 | 15724 ft | 364 kts | 311° |
| 2026-05-01 14:19 | 41.20160 | 9.37416 | 16333 ft | 368 kts | 311° |
| 2026-05-01 14:20 | 41.21671 | 9.34632 | 16941 ft | 372 kts | 311° |
| 2026-05-01 14:20 | 41.24632 | 9.28927 | 18124 ft | 381 kts | 308° |
| 2026-05-01 14:20 | 41.26073 | 9.25934 | 18692 ft | 386 kts | 308° |
| 2026-05-01 14:21 | 41.27495 | 9.22922 | 19221 ft | 389 kts | 307° |
| 2026-05-01 14:21 | 41.28935 | 9.19865 | 19779 ft | 391 kts | 307° |
| 2026-05-01 14:21 | 41.30451 | 9.16831 | 20352 ft | 390 kts | 313° |
| 2026-05-01 14:22 | 41.34583 | 9.12410 | 21432 ft | 382 kts | 338° |
| 2026-05-01 14:22 | 41.37093 | 9.11243 | 21946 ft | 381 kts | 349° |
| 2026-05-01 14:22 | 41.39733 | 9.10848 | 22448 ft | 382 kts | 1° |
| 2026-05-01 14:22 | 41.42373 | 9.10943 | 22942 ft | 384 kts | 2° |
| 2026-05-01 14:23 | 41.45060 | 9.11042 | 23429 ft | 387 kts | 2° |
| 2026-05-01 14:23 | 41.47767 | 9.11135 | 23878 ft | 390 kts | 2° |
| 2026-05-01 14:23 | 41.50490 | 9.11030 | 24257 ft | 394 kts | 352° |
| 2026-05-01 14:23 | 41.51843 | 9.10618 | 24440 ft | 396 kts | 343° |
| 2026-05-01 14:24 | 41.52567 | 9.10290 | 24429 ft | 401 kts | 339° |
| 2026-05-01 14:25 | 41.54969 | 9.08274 | 24672 ft | 411 kts | 319° |
| 2026-05-01 14:25 | 41.56809 | 9.05319 | 25206 ft | 414 kts | 308° |